Time;durP1;ratioP1;P1;durP2;ratioP2;P2;SDS_P1;SDS_P2;PMS_P1;PMS_P2;Temp;Humidity;BMP_temperature;BMP_pressure;BME280_temperature;BME280_humidity;BME280_pressure;Samples;Min_cycle;Max_cycle;Signal;HPM_P1;HPM_P2
2021/01/03 00:00:51;;;;;;;69.47;34.83;;;;;;;;;;5116204;28;20619;-83
2021/01/03 00:03:26;;;;;;;70.23;35.03;;;;;;;;;;5117849;28;20182;-83
2021/01/03 00:05:56;;;;;;;69.00;36.30;;;;;;;;;;5117755;28;20169;-83
2021/01/03 00:08:28;;;;;;;67.03;33.63;;;;;;;;;;5117605;28;20211;-83
2021/01/03 00:11:00;;;;;;;67.43;33.63;;;;;;;;;;5117798;28;20206;-83
2021/01/03 00:13:34;;;;;;;69.53;35.60;;;;;;;;;;5117312;28;20189;-83
2021/01/03 00:16:07;;;;;;;65.83;34.30;;;;;;;;;;5117251;28;20170;-83
2021/01/03 00:18:38;;;;;;;70.30;34.50;;;;;;;;;;5117536;28;20202;-83
2021/01/03 00:21:07;;;;;;;71.07;35.97;;;;;;;;;;5117409;28;20202;-83
2021/01/03 00:23:36;;;;;;;64.13;34.97;;;;;;;;;;5116957;28;20216;-83
2021/01/03 00:26:07;;;;;;;59.30;33.17;;;;;;;;;;5118030;28;20568;-83
2021/01/03 00:28:36;;;;;;;55.70;32.03;;;;;;;;;;5116473;28;20217;-83
2021/01/03 00:31:07;;;;;;;60.67;33.67;;;;;;;;;;5115360;28;20275;-83
2021/01/03 00:33:40;;;;;;;57.83;32.50;;;;;;;;;;5116816;28;20179;-83
2021/01/03 00:36:13;;;;;;;56.97;34.07;;;;;;;;;;5116756;27;20170;-83
2021/01/03 00:38:41;;;;;;;59.57;34.27;;;;;;;;;;5116969;28;20200;-83
2021/01/03 00:41:15;;;;;;;65.40;34.30;;;;;;;;;;5116866;28;20180;-83
2021/01/03 00:43:41;;;;;;;58.77;34.83;;;;;;;;;;5116568;28;20178;-83
2021/01/03 00:46:14;;;;;;;60.27;33.10;;;;;;;;;;5115289;28;20295;-83
2021/01/03 00:48:47;;;;;;;56.07;33.90;;;;;;;;;;5114990;28;20213;-83
2021/01/03 00:51:18;;;;;;;60.10;35.57;;;;;;;;;;5116380;28;20640;-83
2021/01/03 00:53:56;;;;;;;61.20;33.10;;;;;;;;;;5115122;28;20179;-83
2021/01/03 00:56:31;;;;;;;63.60;34.87;;;;;;;;;;5115049;28;20185;-83
2021/01/03 00:59:04;;;;;;;62.30;34.60;;;;;;;;;;5116409;28;20212;-83
2021/01/03 01:01:32;;;;;;;60.93;34.47;;;;;;;;;;5116388;28;20170;-83
2021/01/03 01:04:04;;;;;;;60.67;35.03;;;;;;;;;;5115165;28;20654;-83
2021/01/03 01:06:34;;;;;;;68.47;34.37;;;;;;;;;;5116130;28;20560;-83
2021/01/03 01:09:09;;;;;;;59.30;33.57;;;;;;;;;;5114725;28;20214;-83
2021/01/03 01:11:41;;;;;;;61.63;34.40;;;;;;;;;;5116739;28;20158;-83
2021/01/03 01:14:15;;;;;;;60.33;34.50;;;;;;;;;;5115983;28;20166;-83
2021/01/03 01:16:48;;;;;;;63.23;33.03;;;;;;;;;;5116134;28;20654;-83
2021/01/03 01:19:21;;;;;;;57.30;33.57;;;;;;;;;;5116048;28;20198;-83
2021/01/03 01:21:55;;;;;;;57.77;34.93;;;;;;;;;;5116347;28;20178;-83
2021/01/03 01:24:28;;;;;;;56.57;32.43;;;;;;;;;;5114578;28;20181;-82
2021/01/03 01:27:06;;;;;;;59.43;33.53;;;;;;;;;;5115875;28;20178;-82
2021/01/03 01:29:38;;;;;;;63.00;34.77;;;;;;;;;;5115892;28;20201;-82
2021/01/03 01:32:10;;;;;;;56.03;34.97;;;;;;;;;;5115857;28;20166;-82
2021/01/03 01:34:42;;;;;;;62.87;34.07;;;;;;;;;;5115863;28;20181;-82
2021/01/03 01:37:14;;;;;;;62.67;33.27;;;;;;;;;;5114194;28;20177;-82
2021/01/03 01:39:48;;;;;;;64.27;34.80;;;;;;;;;;5114957;28;20197;-82
2021/01/03 01:42:20;;;;;;;58.87;32.60;;;;;;;;;;5115838;28;20165;-82
2021/01/03 01:44:56;;;;;;;66.10;35.00;;;;;;;;;;5115442;28;20268;-83
2021/01/03 01:47:32;;;;;;;66.13;35.77;;;;;;;;;;5116004;28;20173;-83
2021/01/03 01:50:07;;;;;;;76.77;36.47;;;;;;;;;;5115336;28;20209;-83
2021/01/03 01:52:46;;;;;;;71.27;35.93;;;;;;;;;;5113983;28;20185;-83
2021/01/03 01:55:21;;;;;;;73.93;35.70;;;;;;;;;;5114258;28;20526;-83
2021/01/03 01:58:00;;;;;;;71.97;36.50;;;;;;;;;;5115389;27;20193;-82
2021/01/03 02:00:30;;;;;;;63.30;36.60;;;;;;;;;;5115318;28;20248;-83
2021/01/03 02:03:05;;;;;;;69.23;35.83;;;;;;;;;;5115158;27;20594;-83
2021/01/03 02:05:47;;;;;;;63.57;36.07;;;;;;;;;;5115085;28;20187;-83
2021/01/03 02:08:28;;;;;;;62.70;34.87;;;;;;;;;;5114893;28;20184;-83
2021/01/03 02:11:01;;;;;;;69.17;35.87;;;;;;;;;;5114965;28;20187;-83
2021/01/03 02:13:30;;;;;;;73.23;34.77;;;;;;;;;;5115186;28;20173;-83
2021/01/03 02:16:06;;;;;;;68.60;35.40;;;;;;;;;;5113858;28;20181;-83
2021/01/03 02:18:38;;;;;;;63.87;34.77;;;;;;;;;;5113631;28;20193;-82
2021/01/03 02:21:08;;;;;;;65.80;35.37;;;;;;;;;;5114760;28;20180;-83
2021/01/03 02:23:46;;;;;;;72.57;36.77;;;;;;;;;;5114967;28;20181;-83
2021/01/03 02:26:18;;;;;;;65.73;35.33;;;;;;;;;;5114722;28;20551;-83
2021/01/03 02:28:51;;;;;;;72.70;36.20;;;;;;;;;;5113257;28;20213;-83
2021/01/03 02:31:26;;;;;;;68.43;35.93;;;;;;;;;;5114626;28;20173;-83
2021/01/03 02:33:57;;;;;;;62.73;34.07;;;;;;;;;;5114825;28;20165;-83
2021/01/03 02:36:31;;;;;;;67.77;35.50;;;;;;;;;;5114400;28;20201;-83
2021/01/03 02:39:21;;;;;;;66.43;35.33;;;;;;;;;;5114539;28;20220;-83
2021/01/03 02:41:54;;;;;;;74.83;34.90;;;;;;;;;;5113539;28;20192;-83
2021/01/03 02:44:21;;;;;;;62.73;34.10;;;;;;;;;;5114397;28;20181;-83
2021/01/03 02:46:48;;;;;;;71.00;35.50;;;;;;;;;;5114230;28;20170;-83
2021/01/03 02:49:14;;;;;;;60.27;30.70;;;;;;;;;;5112769;28;20213;-83
2021/01/03 02:51:46;;;;;;;62.30;33.23;;;;;;;;;;5112847;28;20176;-83
2021/01/03 02:54:17;;;;;;;65.23;32.93;;;;;;;;;;5114282;28;20206;-83
2021/01/03 02:56:48;;;;;;;64.23;31.43;;;;;;;;;;5114286;28;20174;-83
2021/01/03 02:59:17;;;;;;;57.80;32.03;;;;;;;;;;5120602;22;20228;-83
2021/01/03 03:01:48;;;;;;;63.13;33.00;;;;;;;;;;5113201;28;20174;-82
2021/01/03 03:04:21;;;;;;;58.23;31.63;;;;;;;;;;5114274;28;20178;-83
2021/01/03 03:06:55;;;;;;;65.43;34.20;;;;;;;;;;5114667;28;20532;-82
2021/01/03 03:09:29;;;;;;;71.83;34.37;;;;;;;;;;5114376;28;20261;-83
2021/01/03 03:12:00;;;;;;;68.80;33.47;;;;;;;;;;5114656;28;20168;-83
2021/01/03 03:14:35;;;;;;;66.23;33.83;;;;;;;;;;5114176;28;20200;-83
2021/01/03 03:17:10;;;;;;;68.07;34.43;;;;;;;;;;5113323;28;20169;-83
2021/01/03 03:19:46;;;;;;;68.53;34.73;;;;;;;;;;5112934;28;20200;-83
2021/01/03 03:22:16;;;;;;;67.07;34.13;;;;;;;;;;5114680;28;20165;-83
2021/01/03 03:24:42;;;;;;;65.03;34.40;;;;;;;;;;5113209;28;20177;-83
2021/01/03 03:27:15;;;;;;;73.60;34.63;;;;;;;;;;5114467;28;20505;-82
2021/01/03 03:29:48;;;;;;;74.83;33.67;;;;;;;;;;5112781;28;20587;-83
2021/01/03 03:32:26;;;;;;;63.20;33.50;;;;;;;;;;5114424;28;20539;-83
2021/01/03 03:34:57;;;;;;;69.00;34.73;;;;;;;;;;5112808;28;20174;-83
2021/01/03 03:37:29;;;;;;;66.47;34.33;;;;;;;;;;5114239;28;20199;-83
2021/01/03 03:40:01;;;;;;;70.97;33.37;;;;;;;;;;5114455;28;20202;-83
2021/01/03 03:42:34;;;;;;;64.57;32.30;;;;;;;;;;5114094;28;20174;-83
2021/01/03 03:45:07;;;;;;;66.47;31.07;;;;;;;;;;5114238;28;20203;-82
2021/01/03 03:47:36;;;;;;;69.67;31.57;;;;;;;;;;5114227;28;20178;-83
2021/01/03 03:50:07;;;;;;;63.80;31.83;;;;;;;;;;5113985;28;20217;-83
2021/01/03 03:52:39;;;;;;;64.60;31.80;;;;;;;;;;5114368;28;20172;-83
2021/01/03 03:55:11;;;;;;;70.37;32.80;;;;;;;;;;5113939;28;20199;-83
2021/01/03 03:57:41;;;;;;;65.07;31.67;;;;;;;;;;5113967;28;20170;-82
2021/01/03 04:00:19;;;;;;;59.73;31.70;;;;;;;;;;5112167;28;20700;-83
2021/01/03 04:02:50;;;;;;;64.20;29.67;;;;;;;;;;5115963;28;20166;-82
2021/01/03 04:05:23;;;;;;;66.40;29.33;;;;;;;;;;5117415;28;20180;-83
2021/01/03 04:07:54;;;;;;;58.27;29.23;;;;;;;;;;5118146;28;20580;-83
2021/01/03 04:10:25;;;;;;;61.93;30.67;;;;;;;;;;5117631;28;20217;-83
2021/01/03 04:12:53;;;;;;;59.57;29.03;;;;;;;;;;5117544;28;20173;-83
2021/01/03 04:15:25;;;;;;;62.50;29.33;;;;;;;;;;5117641;28;20251;-83
2021/01/03 04:17:52;;;;;;;58.43;28.27;;;;;;;;;;5117345;28;20177;-83
2021/01/03 04:20:27;;;;;;;54.90;26.93;;;;;;;;;;5116284;28;20299;-82
2021/01/03 04:22:59;;;;;;;48.83;25.27;;;;;;;;;;5117698;28;20164;-82
2021/01/03 04:25:30;;;;;;;45.30;23.67;;;;;;;;;;5117400;28;20252;-83
2021/01/03 04:27:57;;;;;;;41.87;23.00;;;;;;;;;;5115687;28;20171;-83
2021/01/03 04:30:29;;;;;;;41.03;23.70;;;;;;;;;;5116781;28;20225;-83
2021/01/03 04:33:01;;;;;;;36.03;21.87;;;;;;;;;;5115948;28;20185;-82
2021/01/03 04:35:31;;;;;;;42.97;23.07;;;;;;;;;;5115671;28;20173;-82
2021/01/03 04:38:05;;;;;;;39.90;22.10;;;;;;;;;;5116856;28;20176;-82
2021/01/03 04:40:39;;;;;;;41.13;21.87;;;;;;;;;;5116895;28;20213;-82
2021/01/03 04:43:16;;;;;;;32.53;19.23;;;;;;;;;;5116045;28;20177;-82
2021/01/03 04:45:48;;;;;;;39.13;20.87;;;;;;;;;;5116720;28;20169;-82
2021/01/03 04:48:29;;;;;;;36.30;20.80;;;;;;;;;;5116642;28;20177;-82
2021/01/03 04:51:08;;;;;;;34.60;19.13;;;;;;;;;;5116715;28;20176;-83
2021/01/03 04:53:58;;;;;;;36.60;20.50;;;;;;;;;;5117083;28;20161;-83
2021/01/03 04:56:35;;;;;;;33.20;20.00;;;;;;;;;;5117205;28;20249;-82
2021/01/03 04:59:15;;;;;;;29.30;17.37;;;;;;;;;;5116586;28;20215;-82
2021/01/03 05:02:01;;;;;;;36.93;19.30;;;;;;;;;;5115344;28;20177;-82
2021/01/03 05:04:38;;;;;;;30.00;19.10;;;;;;;;;;5116800;28;20679;-82
2021/01/03 05:07:08;;;;;;;36.07;18.10;;;;;;;;;;5115240;28;20184;-82
2021/01/03 05:09:40;;;;;;;35.50;19.50;;;;;;;;;;5116457;28;20686;-83
2021/01/03 05:12:26;;;;;;;32.63;18.67;;;;;;;;;;5116699;28;20260;-83
2021/01/03 05:14:58;;;;;;;31.53;18.97;;;;;;;;;;5116545;28;20275;-83
2021/01/03 05:17:29;;;;;;;32.73;18.70;;;;;;;;;;5115150;28;20220;-83
2021/01/03 05:20:01;;;;;;;31.77;18.77;;;;;;;;;;5116409;28;20199;-82
2021/01/03 05:22:34;;;;;;;28.67;18.63;;;;;;;;;;5115027;28;20173;-82
2021/01/03 05:25:08;;;;;;;26.47;17.33;;;;;;;;;;5116787;28;20236;-82
2021/01/03 05:27:40;;;;;;;29.17;19.07;;;;;;;;;;5114893;28;20555;-82
2021/01/03 05:30:28;;;;;;;33.13;19.20;;;;;;;;;;5115938;28;20205;-82
2021/01/03 05:33:15;;;;;;;34.17;19.27;;;;;;;;;;5114380;28;20551;-82
2021/01/03 05:35:47;;;;;;;29.23;18.20;;;;;;;;;;5114695;28;20174;-82
2021/01/03 05:38:36;;;;;;;23.20;16.10;;;;;;;;;;5114929;28;20185;-82
2021/01/03 05:41:17;;;;;;;22.07;15.97;;;;;;;;;;5116283;28;20176;-82
2021/01/03 05:43:58;;;;;;;21.43;15.50;;;;;;;;;;5115948;28;20644;-83
2021/01/03 05:46:36;;;;;;;23.00;17.70;;;;;;;;;;5114234;28;20267;-82
2021/01/03 05:49:15;;;;;;;22.73;18.40;;;;;;;;;;5114320;28;20217;-83
2021/01/03 05:51:49;;;;;;;25.27;19.23;;;;;;;;;;5115658;28;20180;-82
2021/01/03 05:54:22;;;;;;;27.43;19.43;;;;;;;;;;5114233;28;20716;-83
2021/01/03 05:56:55;;;;;;;24.77;17.90;;;;;;;;;;5115555;28;20191;-82
2021/01/03 05:59:29;;;;;;;27.97;20.43;;;;;;;;;;5115149;28;20221;-82
2021/01/03 06:02:13;;;;;;;25.83;20.13;;;;;;;;;;5115764;28;20178;-83
2021/01/03 06:04:44;;;;;;;21.27;17.67;;;;;;;;;;5114367;28;20577;-82
2021/01/03 06:07:23;;;;;;;23.70;19.37;;;;;;;;;;5114000;28;20176;-82
2021/01/03 06:09:54;;;;;;;25.00;18.90;;;;;;;;;;5114365;28;20284;-83
2021/01/03 06:12:29;;;;;;;25.03;19.63;;;;;;;;;;5115599;28;20652;-82
2021/01/03 06:15:06;;;;;;;22.67;18.50;;;;;;;;;;5114319;28;20233;-83
2021/01/03 06:18:01;;;;;;;21.20;17.77;;;;;;;;;;5115590;28;20234;-82
2021/01/03 06:20:39;;;;;;;23.80;19.03;;;;;;;;;;5113751;28;20239;-82
2021/01/03 06:23:21;;;;;;;21.37;19.17;;;;;;;;;;5115651;28;20161;-82
2021/01/03 06:25:59;;;;;;;22.97;18.23;;;;;;;;;;5115021;28;20175;-82
2021/01/03 06:28:31;;;;;;;18.30;16.37;;;;;;;;;;5115111;28;20157;-82
2021/01/03 06:31:03;;;;;;;20.07;16.20;;;;;;;;;;5115291;28;20177;-82
2021/01/03 06:33:45;;;;;;;17.57;15.67;;;;;;;;;;5114983;28;20641;-83
2021/01/03 06:36:18;;;;;;;19.77;16.43;;;;;;;;;;5114972;28;20172;-82
2021/01/03 06:39:07;;;;;;;13.63;12.27;;;;;;;;;;5114848;28;20199;-82
2021/01/03 06:41:45;;;;;;;14.23;11.00;;;;;;;;;;5114733;28;20189;-82
2021/01/03 06:44:25;;;;;;;11.67;10.43;;;;;;;;;;5113361;28;20652;-82
2021/01/03 06:47:03;;;;;;;18.53;14.27;;;;;;;;;;5113643;28;20555;-82
2021/01/03 06:49:46;;;;;;;18.13;14.23;;;;;;;;;;5115164;28;20234;-82
2021/01/03 06:52:30;;;;;;;20.67;14.97;;;;;;;;;;5113419;28;20181;-82
2021/01/03 06:55:18;;;;;;;17.27;15.43;;;;;;;;;;5115225;28;20586;-83
2021/01/03 06:57:48;;;;;;;18.57;16.57;;;;;;;;;;5117247;28;20237;-82
2021/01/03 07:00:40;;;;;;;21.13;18.20;;;;;;;;;;5113511;28;20269;-82
2021/01/03 07:03:10;;;;;;;21.97;14.50;;;;;;;;;;5114760;28;20519;-82
2021/01/03 07:05:54;;;;;;;22.07;15.57;;;;;;;;;;5114572;28;20176;-82
2021/01/03 07:08:26;;;;;;;18.87;15.37;;;;;;;;;;5114391;28;20176;-82
2021/01/03 07:10:53;;;;;;;16.10;13.13;;;;;;;;;;5115105;28;20180;-82
2021/01/03 07:13:22;;;;;;;20.27;15.50;;;;;;;;;;5114736;28;20229;-82
2021/01/03 07:15:50;;;;;;;19.27;14.77;;;;;;;;;;5115102;28;20176;-83
2021/01/03 07:18:31;;;;;;;18.60;16.57;;;;;;;;;;5114821;28;20207;-82
2021/01/03 07:21:06;;;;;;;19.63;15.67;;;;;;;;;;5113078;28;20177;-82
2021/01/03 07:23:36;;;;;;;20.53;15.20;;;;;;;;;;5114611;28;20173;-82
2021/01/03 07:26:10;;;;;;;20.40;14.97;;;;;;;;;;5114883;28;20155;-82
2021/01/03 07:28:46;;;;;;;19.50;14.70;;;;;;;;;;5114199;28;20698;-82
2021/01/03 07:31:30;;;;;;;18.67;15.17;;;;;;;;;;5114972;28;20233;-82
2021/01/03 07:34:11;;;;;;;18.33;14.83;;;;;;;;;;5113417;28;20186;-82
2021/01/03 07:36:45;;;;;;;21.10;16.23;;;;;;;;;;5114800;28;20660;-82
2021/01/03 07:39:17;;;;;;;17.67;15.47;;;;;;;;;;5117482;28;20208;-82
2021/01/03 07:41:51;;;;;;;16.17;14.40;;;;;;;;;;5118446;28;20185;-82
2021/01/03 07:44:28;;;;;;;20.33;17.33;;;;;;;;;;5118147;28;20586;-82
2021/01/03 07:46:56;;;;;;;18.07;15.37;;;;;;;;;;5116912;28;20197;-82
2021/01/03 07:49:34;;;;;;;19.57;16.13;;;;;;;;;;5116786;28;20208;-82
2021/01/03 07:52:12;;;;;;;22.50;16.20;;;;;;;;;;5118115;28;20212;-82
2021/01/03 07:54:51;;;;;;;22.90;16.70;;;;;;;;;;5118281;28;20179;-82
2021/01/03 07:57:25;;;;;;;21.37;17.17;;;;;;;;;;5118411;28;20188;-82
2021/01/03 07:59:54;;;;;;;18.13;16.13;;;;;;;;;;5116765;28;20210;-82
2021/01/03 08:02:31;;;;;;;16.90;14.97;;;;;;;;;;5117789;27;20640;-82
2021/01/03 08:05:03;;;;;;;15.83;13.70;;;;;;;;;;5116579;28;20158;-82
2021/01/03 08:07:41;;;;;;;14.20;12.50;;;;;;;;;;5116841;28;20644;-82
2021/01/03 08:10:13;;;;;;;15.40;13.60;;;;;;;;;;5118071;28;20544;-82
2021/01/03 08:12:47;;;;;;;16.50;14.77;;;;;;;;;;5117872;28;20171;-82
2021/01/03 08:15:25;;;;;;;15.00;13.53;;;;;;;;;;5118509;28;20175;-82
2021/01/03 08:18:01;;;;;;;13.07;11.77;;;;;;;;;;5117023;28;20207;-82
2021/01/03 08:20:29;;;;;;;15.30;12.27;;;;;;;;;;5117903;28;20298;-83
2021/01/03 08:23:17;;;;;;;13.80;11.17;;;;;;;;;;5117526;28;20208;-83
2021/01/03 08:25:51;;;;;;;13.80;12.40;;;;;;;;;;5117564;28;20200;-82
2021/01/03 08:28:30;;;;;;;13.70;11.10;;;;;;;;;;5117598;28;20239;-81
2021/01/03 08:31:01;;;;;;;12.90;11.70;;;;;;;;;;5117307;28;20167;-82
2021/01/03 08:33:45;;;;;;;13.20;11.60;;;;;;;;;;5117383;28;20321;-82
2021/01/03 08:36:31;;;;;;;12.67;11.37;;;;;;;;;;5117829;28;20564;-82
2021/01/03 08:39:10;;;;;;;11.87;10.77;;;;;;;;;;5117456;28;20687;-82
2021/01/03 08:41:48;;;;;;;14.00;12.33;;;;;;;;;;5117301;28;20167;-82
2021/01/03 08:44:26;;;;;;;11.70;10.60;;;;;;;;;;5115943;28;20607;-83
2021/01/03 08:47:06;;;;;;;13.93;12.50;;;;;;;;;;5117325;28;20179;-83
2021/01/03 08:49:41;;;;;;;11.97;10.77;;;;;;;;;;5116300;28;20195;-82
2021/01/03 08:52:25;;;;;;;10.83;9.77;;;;;;;;;;5117007;27;20170;-82
2021/01/03 08:55:10;;;;;;;12.07;10.87;;;;;;;;;;5117249;28;20163;-82
2021/01/03 08:57:44;;;;;;;11.17;9.93;;;;;;;;;;5117028;28;20222;-82
2021/01/03 09:00:21;;;;;;;13.93;11.33;;;;;;;;;;5138685;22;20234;-84
2021/01/03 09:02:56;;;;;;;11.70;10.60;;;;;;;;;;5116332;28;20291;-84
2021/01/03 09:05:30;;;;;;;12.23;11.00;;;;;;;;;;5116672;28;20170;-84
2021/01/03 09:08:01;;;;;;;12.80;11.60;;;;;;;;;;5116562;28;20190;-84
2021/01/03 09:10:41;;;;;;;12.53;11.33;;;;;;;;;;5127663;27;20197;-83
2021/01/03 09:13:23;;;;;;;13.10;11.90;;;;;;;;;;5135433;27;20176;-84
2021/01/03 09:16:08;;;;;;;13.17;11.87;;;;;;;;;;5136529;27;20215;-84
2021/01/03 09:18:58;;;;;;;13.43;12.23;;;;;;;;;;5137028;27;20166;-84
2021/01/03 09:21:29;;;;;;;12.70;11.53;;;;;;;;;;5123253;27;20216;-83
2021/01/03 09:24:07;;;;;;;13.50;12.30;;;;;;;;;;5135062;27;20574;-83
2021/01/03 09:26:40;;;;;;;15.07;13.77;;;;;;;;;;5135260;27;20400;-84
2021/01/03 09:29:11;;;;;;;16.13;14.53;;;;;;;;;;5134714;27;20189;-84
2021/01/03 09:31:56;;;;;;;14.67;13.30;;;;;;;;;;5136150;27;20255;-84
2021/01/03 09:34:31;;;;;;;15.43;14.03;;;;;;;;;;5136157;27;20181;-84
2021/01/03 09:37:04;;;;;;;14.70;13.47;;;;;;;;;;5134684;27;20192;-81
2021/01/03 09:39:43;;;;;;;15.20;13.77;;;;;;;;;;5135816;27;20698;-81
2021/01/03 09:42:33;;;;;;;16.10;14.57;;;;;;;;;;5134745;27;20194;-82
2021/01/03 09:45:19;;;;;;;15.60;14.13;;;;;;;;;;5134933;27;20226;-82
2021/01/03 09:47:55;;;;;;;16.00;14.50;;;;;;;;;;5134695;27;20191;-81
2021/01/03 09:50:23;;;;;;;16.93;15.37;;;;;;;;;;5136157;27;20194;-81
2021/01/03 09:52:58;;;;;;;15.37;13.97;;;;;;;;;;5135706;27;20172;-82
2021/01/03 09:55:31;;;;;;;15.87;14.27;;;;;;;;;;5134687;27;20181;-81
2021/01/03 09:58:07;;;;;;;16.90;14.90;;;;;;;;;;5135956;27;20156;-82
2021/01/03 10:00:49;;;;;;;16.23;14.50;;;;;;;;;;5134859;27;20814;-81
2021/01/03 10:03:21;;;;;;;16.37;14.13;;;;;;;;;;5134473;27;20171;-81
2021/01/03 10:05:54;;;;;;;16.47;14.83;;;;;;;;;;5135614;27;20191;-81
2021/01/03 10:08:27;;;;;;;17.00;15.20;;;;;;;;;;5135565;27;20178;-81
2021/01/03 10:11:00;;;;;;;15.93;14.43;;;;;;;;;;5135493;27;20190;-81
2021/01/03 10:13:30;;;;;;;16.20;14.60;;;;;;;;;;5135546;27;20161;-81
2021/01/03 10:16:17;;;;;;;15.47;13.93;;;;;;;;;;5135360;27;20199;-81
2021/01/03 10:18:46;;;;;;;15.97;13.63;;;;;;;;;;5135443;27;20193;-81
2021/01/03 10:21:22;;;;;;;15.40;13.90;;;;;;;;;;5135405;27;20190;-82
2021/01/03 10:23:55;;;;;;;14.97;13.47;;;;;;;;;;5133874;27;20177;-81
2021/01/03 10:26:32;;;;;;;14.43;13.13;;;;;;;;;;5135135;27;20631;-81
2021/01/03 10:29:04;;;;;;;15.77;13.27;;;;;;;;;;5135179;27;20183;-82
2021/01/03 10:31:47;;;;;;;15.17;13.77;;;;;;;;;;5135042;27;20556;-82
2021/01/03 10:34:21;;;;;;;14.63;13.33;;;;;;;;;;5135474;27;20220;-82
2021/01/03 10:36:50;;;;;;;13.53;12.17;;;;;;;;;;5135288;27;20255;-82
2021/01/03 10:39:25;;;;;;;13.67;12.37;;;;;;;;;;5133938;27;20228;-82
2021/01/03 10:41:58;;;;;;;13.03;11.67;;;;;;;;;;5135077;27;20167;-82
2021/01/03 10:44:30;;;;;;;12.57;11.27;;;;;;;;;;5133675;27;20714;-82
2021/01/03 10:47:05;;;;;;;11.57;10.50;;;;;;;;;;5133611;27;20214;-82
2021/01/03 10:49:35;;;;;;;13.60;12.13;;;;;;;;;;5133596;27;20668;-82
2021/01/03 10:52:06;;;;;;;11.83;10.73;;;;;;;;;;5134895;27;20708;-82
2021/01/03 10:54:44;;;;;;;11.87;10.77;;;;;;;;;;5135231;27;20176;-82
2021/01/03 10:57:21;;;;;;;11.07;9.93;;;;;;;;;;5134913;27;20197;-82
2021/01/03 10:59:53;;;;;;;11.70;10.40;;;;;;;;;;5134729;27;20281;-82
2021/01/03 11:02:20;;;;;;;10.90;9.43;;;;;;;;;;5134853;27;20169;-82
2021/01/03 11:04:48;;;;;;;10.23;9.33;;;;;;;;;;5133231;27;20554;-81
2021/01/03 11:07:14;;;;;;;10.60;9.57;;;;;;;;;;5134818;27;20169;-81
2021/01/03 11:09:49;;;;;;;11.10;9.97;;;;;;;;;;5133343;28;20283;-82
2021/01/03 11:12:21;;;;;;;9.23;8.33;;;;;;;;;;5138730;27;20203;-82
2021/01/03 11:14:55;;;;;;;8.53;7.70;;;;;;;;;;5141673;27;20236;-82
2021/01/03 11:17:26;;;;;;;9.57;8.63;;;;;;;;;;5140618;27;20163;-81
2021/01/03 11:19:56;;;;;;;9.10;8.20;;;;;;;;;;5141562;27;20206;-82
2021/01/03 11:22:27;;;;;;;10.93;7.97;;;;;;;;;;5141320;27;20172;-81
2021/01/03 11:24:58;;;;;;;7.83;7.03;;;;;;;;;;5141792;27;20172;-82
2021/01/03 11:27:30;;;;;;;8.03;7.33;;;;;;;;;;5140043;27;20228;-82
2021/01/03 11:30:06;;;;;;;9.70;8.20;;;;;;;;;;5140076;27;20241;-81
2021/01/03 11:32:32;;;;;;;8.67;7.87;;;;;;;;;;5140554;27;20542;-81
2021/01/03 11:35:01;;;;;;;8.00;7.20;;;;;;;;;;5141350;27;20207;-81
2021/01/03 11:37:31;;;;;;;8.77;7.97;;;;;;;;;;5141021;27;20169;-81
2021/01/03 11:40:04;;;;;;;8.00;7.17;;;;;;;;;;5141269;27;20204;-82
2021/01/03 11:42:33;;;;;;;7.87;7.20;;;;;;;;;;5140406;27;20573;-82
2021/01/03 11:45:05;;;;;;;8.47;7.60;;;;;;;;;;5141032;27;20172;-81
2021/01/03 11:47:39;;;;;;;8.80;8.00;;;;;;;;;;5141217;27;20632;-82
2021/01/03 11:50:12;;;;;;;8.67;7.93;;;;;;;;;;5141366;27;20208;-82
2021/01/03 11:52:44;;;;;;;8.47;7.67;;;;;;;;;;5139761;27;20177;-81
2021/01/03 11:55:13;;;;;;;7.13;6.53;;;;;;;;;;5139728;27;20176;-81
2021/01/03 11:57:45;;;;;;;7.37;6.67;;;;;;;;;;5141074;27;20168;-81
2021/01/03 12:00:16;;;;;;;7.60;6.80;;;;;;;;;;5139745;27;20224;-82
2021/01/03 12:02:43;;;;;;;7.70;6.90;;;;;;;;;;5141386;27;20169;-81
2021/01/03 12:05:22;;;;;;;7.97;7.00;;;;;;;;;;5139956;27;20306;-82
2021/01/03 12:07:51;;;;;;;7.73;6.17;;;;;;;;;;5141312;27;20255;-81
2021/01/03 12:10:25;;;;;;;7.07;6.47;;;;;;;;;;5140968;27;20663;-81
2021/01/03 12:12:55;;;;;;;6.77;6.17;;;;;;;;;;5139748;27;20177;-81
2021/01/03 12:15:23;;;;;;;5.73;5.33;;;;;;;;;;5141311;27;20329;-81
2021/01/03 12:17:50;;;;;;;6.30;5.53;;;;;;;;;;5140921;27;20180;-82
2021/01/03 12:20:23;;;;;;;8.70;7.17;;;;;;;;;;5139436;27;20261;-81
2021/01/03 12:22:53;;;;;;;6.60;5.20;;;;;;;;;;5137651;27;20169;-81
2021/01/03 12:25:19;;;;;;;10.27;5.60;;;;;;;;;;5136472;27;20177;-81
2021/01/03 12:27:48;;;;;;;6.03;5.53;;;;;;;;;;5136435;27;20597;-81
2021/01/03 12:30:16;;;;;;;5.40;4.93;;;;;;;;;;5137996;27;20190;-81
2021/01/03 12:32:42;;;;;;;10.27;5.70;;;;;;;;;;5136895;27;20260;-81
2021/01/03 12:35:09;;;;;;;5.67;5.23;;;;;;;;;;5136583;27;20581;-81
2021/01/03 12:37:41;;;;;;;6.30;5.70;;;;;;;;;;5137686;27;20173;-81
2021/01/03 12:40:08;;;;;;;6.80;6.13;;;;;;;;;;5137696;27;20209;-81
2021/01/03 12:42:41;;;;;;;5.27;4.87;;;;;;;;;;5136498;27;20210;-81
2021/01/03 12:45:10;;;;;;;6.47;5.97;;;;;;;;;;5136705;27;20544;-81
2021/01/03 12:47:44;;;;;;;5.50;5.10;;;;;;;;;;5136149;27;20222;-81
2021/01/03 12:50:11;;;;;;;9.57;6.80;;;;;;;;;;5137382;27;20229;-82
2021/01/03 12:52:44;;;;;;;6.50;6.00;;;;;;;;;;5137144;27;20173;-82
2021/01/03 12:55:12;;;;;;;6.00;5.20;;;;;;;;;;5137258;27;20169;-82
2021/01/03 12:57:44;;;;;;;6.50;6.00;;;;;;;;;;5136771;27;20173;-81
2021/01/03 13:00:13;;;;;;;6.40;5.60;;;;;;;;;;5135451;27;20300;-82
2021/01/03 13:02:50;;;;;;;5.50;5.00;;;;;;;;;;5137443;27;20240;-82
2021/01/03 13:05:25;;;;;;;5.43;5.03;;;;;;;;;;5137088;27;20255;-82
2021/01/03 13:07:59;;;;;;;5.17;4.33;;;;;;;;;;5136974;27;20239;-81
2021/01/03 13:10:31;;;;;;;5.00;4.70;;;;;;;;;;5135438;27;20201;-82
2021/01/03 13:13:01;;;;;;;6.20;4.90;;;;;;;;;;5135515;27;20184;-82
2021/01/03 13:15:34;;;;;;;5.60;5.20;;;;;;;;;;5135266;27;20181;-81
2021/01/03 13:18:09;;;;;;;4.90;4.47;;;;;;;;;;5136837;27;20177;-81
2021/01/03 13:20:41;;;;;;;6.40;5.90;;;;;;;;;;5136489;27;20291;-81
2021/01/03 13:23:15;;;;;;;5.40;4.97;;;;;;;;;;5136807;27;20183;-82
2021/01/03 13:25:41;;;;;;;6.20;5.43;;;;;;;;;;5135748;27;20173;-82
2021/01/03 13:28:15;;;;;;;5.30;4.80;;;;;;;;;;5135594;27;20670;-81
2021/01/03 13:30:44;;;;;;;5.00;4.50;;;;;;;;;;5134841;27;20660;-82
2021/01/03 13:33:14;;;;;;;4.87;4.57;;;;;;;;;;5136349;27;20173;-81
2021/01/03 13:35:45;;;;;;;4.67;4.27;;;;;;;;;;5135152;27;20263;-81
2021/01/03 13:38:21;;;;;;;7.03;5.00;;;;;;;;;;5136486;27;20173;-82
2021/01/03 13:40:51;;;;;;;5.50;5.00;;;;;;;;;;5136096;27;20276;-81
2021/01/03 13:43:21;;;;;;;4.37;4.07;;;;;;;;;;5136337;27;20244;-81
2021/01/03 13:45:55;;;;;;;4.53;4.23;;;;;;;;;;5134828;27;20264;-81
2021/01/03 13:48:25;;;;;;;7.67;4.60;;;;;;;;;;5136130;27;20168;-82
2021/01/03 13:50:58;;;;;;;5.53;5.03;;;;;;;;;;5135859;27;20204;-81
2021/01/03 13:53:29;;;;;;;5.87;5.37;;;;;;;;;;5134561;27;20181;-81
2021/01/03 13:56:03;;;;;;;6.57;5.00;;;;;;;;;;5134453;27;20177;-81
2021/01/03 13:58:34;;;;;;;4.90;4.47;;;;;;;;;;5136027;27;20216;-81
2021/01/03 14:01:09;;;;;;;6.87;4.80;;;;;;;;;;5135736;27;20200;-81
2021/01/03 14:03:36;;;;;;;4.27;3.97;;;;;;;;;;5134709;27;20207;-81
2021/01/03 14:06:08;;;;;;;5.20;4.80;;;;;;;;;;5135525;27;20536;-81
2021/01/03 14:08:40;;;;;;;4.17;3.87;;;;;;;;;;5134275;27;20165;-81
2021/01/03 14:11:14;;;;;;;4.83;4.53;;;;;;;;;;5135449;27;20197;-81
2021/01/03 14:13:51;;;;;;;6.83;6.13;;;;;;;;;;5134232;27;20215;-81
2021/01/03 14:16:24;;;;;;;5.40;5.00;;;;;;;;;;5134643;27;20173;-81
2021/01/03 14:18:59;;;;;;;5.10;4.70;;;;;;;;;;5134840;27;20197;-81
2021/01/03 14:21:35;;;;;;;4.47;4.07;;;;;;;;;;5134026;27;20691;-81
2021/01/03 14:24:10;;;;;;;4.43;4.13;;;;;;;;;;5135591;27;20703;-81
2021/01/03 14:26:51;;;;;;;6.00;4.97;;;;;;;;;;5135861;27;20149;-82
2021/01/03 14:29:21;;;;;;;4.10;3.70;;;;;;;;;;5135045;27;20288;-81
2021/01/03 14:32:00;;;;;;;6.30;5.70;;;;;;;;;;5134112;27;20654;-81
2021/01/03 14:34:34;;;;;;;7.30;4.70;;;;;;;;;;5135358;27;20177;-81
2021/01/03 14:37:26;;;;;;;5.17;4.67;;;;;;;;;;5134015;27;20180;-82
2021/01/03 14:40:06;;;;;;;5.83;5.33;;;;;;;;;;5134236;27;20223;-81
2021/01/03 14:42:41;;;;;;;5.00;4.60;;;;;;;;;;5135559;27;20543;-81
2021/01/03 14:45:15;;;;;;;4.83;4.43;;;;;;;;;;5133831;27;20176;-81
2021/01/03 14:47:52;;;;;;;5.73;5.13;;;;;;;;;;5134782;27;20632;-81
2021/01/03 14:50:18;;;;;;;6.43;5.63;;;;;;;;;;5133981;27;20196;-82
2021/01/03 14:53:03;;;;;;;5.83;5.23;;;;;;;;;;5136453;27;20177;-82
2021/01/03 14:55:52;;;;;;;4.43;4.10;;;;;;;;;;5137796;27;20174;-82
2021/01/03 14:58:29;;;;;;;8.57;5.13;;;;;;;;;;5127565;27;20245;-82
2021/01/03 15:00:55;;;;;;;5.57;4.93;;;;;;;;;;5136484;27;20283;-82
2021/01/03 15:03:41;;;;;;;5.30;4.60;;;;;;;;;;5137511;27;20195;-82